sensor_id;sensor_type;location;lat;lon;timestamp;pressure;altitude;pressure_sealevel;temperature;humidity
20023;BME280;10172;42.054;24.546;2022-12-24T00:00:04;98018.25;;;5.98;100.00
20023;BME280;10172;42.054;24.546;2022-12-24T00:02:29;98024.25;;;5.85;100.00
20023;BME280;10172;42.054;24.546;2022-12-24T00:04:55;98022.81;;;5.62;100.00
20023;BME280;10172;42.054;24.546;2022-12-24T00:07:20;98023.94;;;5.74;100.00
20023;BME280;10172;42.054;24.546;2022-12-24T00:09:46;98028.16;;;6.11;100.00
20023;BME280;10172;42.054;24.546;2022-12-24T00:12:11;98021.88;;;5.46;100.00
20023;BME280;10172;42.054;24.546;2022-12-24T00:14:36;98020.69;;;5.52;100.00
20023;BME280;10172;42.054;24.546;2022-12-24T00:17:02;98033.41;;;5.78;100.00
20023;BME280;10172;42.054;24.546;2022-12-24T00:19:27;98022.47;;;5.85;100.00
20023;BME280;10172;42.054;24.546;2022-12-24T00:21:53;98023.34;;;6.50;100.00
20023;BME280;10172;42.054;24.546;2022-12-24T00:24:18;98028.00;;;6.29;100.00
20023;BME280;10172;42.054;24.546;2022-12-24T00:26:44;98023.66;;;6.13;100.00
20023;BME280;10172;42.054;24.546;2022-12-24T00:29:10;98026.16;;;5.49;100.00
20023;BME280;10172;42.054;24.546;2022-12-24T00:31:36;98032.56;;;5.60;100.00
20023;BME280;10172;42.054;24.546;2022-12-24T00:34:01;98024.03;;;5.72;100.00
20023;BME280;10172;42.054;24.546;2022-12-24T00:36:27;98020.63;;;5.70;100.00
20023;BME280;10172;42.054;24.546;2022-12-24T00:38:52;98023.69;;;5.95;100.00
20023;BME280;10172;42.054;24.546;2022-12-24T00:41:17;98021.59;;;6.18;100.00
20023;BME280;10172;42.054;24.546;2022-12-24T00:46:19;98022.97;;;5.42;100.00
20023;BME280;10172;42.054;24.546;2022-12-24T00:48:44;98014.66;;;5.50;100.00
20023;BME280;10172;42.054;24.546;2022-12-24T00:51:10;98014.06;;;5.10;100.00
20023;BME280;10172;42.054;24.546;2022-12-24T00:53:35;98012.44;;;5.08;100.00
20023;BME280;10172;42.054;24.546;2022-12-24T00:56:01;98013.09;;;5.11;100.00
20023;BME280;10172;42.054;24.546;2022-12-24T00:58:26;97998.91;;;5.14;100.00
20023;BME280;10172;42.054;24.546;2022-12-24T01:00:51;98007.13;;;5.59;100.00
20023;BME280;10172;42.054;24.546;2022-12-24T01:03:17;98005.78;;;5.68;100.00
20023;BME280;10172;42.054;24.546;2022-12-24T01:05:42;98009.16;;;5.54;100.00
20023;BME280;10172;42.054;24.546;2022-12-24T01:08:08;97995.50;;;5.12;100.00
20023;BME280;10172;42.054;24.546;2022-12-24T01:10:34;98000.63;;;5.32;100.00
20023;BME280;10172;42.054;24.546;2022-12-24T01:13:02;98003.38;;;5.63;100.00
20023;BME280;10172;42.054;24.546;2022-12-24T01:15:28;97999.22;;;5.59;100.00
20023;BME280;10172;42.054;24.546;2022-12-24T01:17:54;97999.13;;;5.43;100.00
20023;BME280;10172;42.054;24.546;2022-12-24T01:20:19;97990.75;;;5.53;100.00
20023;BME280;10172;42.054;24.546;2022-12-24T01:22:45;97980.78;;;5.75;100.00
20023;BME280;10172;42.054;24.546;2022-12-24T01:25:12;97985.25;;;5.90;100.00
20023;BME280;10172;42.054;24.546;2022-12-24T01:27:38;97975.72;;;5.87;100.00
20023;BME280;10172;42.054;24.546;2022-12-24T01:30:06;97992.13;;;6.10;100.00
20023;BME280;10172;42.054;24.546;2022-12-24T01:32:31;97975.38;;;6.87;100.00
20023;BME280;10172;42.054;24.546;2022-12-24T01:34:57;97986.66;;;6.44;100.00
20023;BME280;10172;42.054;24.546;2022-12-24T01:37:24;97994.00;;;6.70;100.00
20023;BME280;10172;42.054;24.546;2022-12-24T01:39:49;97997.00;;;7.09;100.00
20023;BME280;10172;42.054;24.546;2022-12-24T01:42:22;98001.47;;;7.23;100.00
20023;BME280;10172;42.054;24.546;2022-12-24T01:45:36;98003.38;;;6.60;100.00
20023;BME280;10172;42.054;24.546;2022-12-24T01:48:04;97995.00;;;7.43;100.00
20023;BME280;10172;42.054;24.546;2022-12-24T01:50:36;97987.69;;;6.57;100.00
20023;BME280;10172;42.054;24.546;2022-12-24T01:53:03;97994.47;;;5.81;100.00
20023;BME280;10172;42.054;24.546;2022-12-24T01:55:30;97989.03;;;5.84;100.00
20023;BME280;10172;42.054;24.546;2022-12-24T01:57:57;97992.81;;;6.76;100.00
20023;BME280;10172;42.054;24.546;2022-12-24T02:00:24;97996.22;;;6.15;100.00
20023;BME280;10172;42.054;24.546;2022-12-24T02:02:51;97991.41;;;6.06;100.00
20023;BME280;10172;42.054;24.546;2022-12-24T02:05:37;97996.69;;;6.06;100.00
20023;BME280;10172;42.054;24.546;2022-12-24T02:08:04;97987.03;;;5.89;100.00
20023;BME280;10172;42.054;24.546;2022-12-24T02:10:30;97989.53;;;5.42;100.00
20023;BME280;10172;42.054;24.546;2022-12-24T02:12:57;97978.84;;;5.78;100.00
20023;BME280;10172;42.054;24.546;2022-12-24T02:15:23;97986.84;;;5.60;100.00
20023;BME280;10172;42.054;24.546;2022-12-24T02:31:16;97987.03;;;7.29;100.00
20023;BME280;10172;42.054;24.546;2022-12-24T02:33:58;97994.56;;;7.64;100.00
20023;BME280;10172;42.054;24.546;2022-12-24T02:36:32;97992.41;;;7.57;100.00
20023;BME280;10172;42.054;24.546;2022-12-24T02:39:05;97987.88;;;6.54;100.00
20023;BME280;10172;42.054;24.546;2022-12-24T02:41:44;97993.53;;;7.23;100.00
20023;BME280;10172;42.054;24.546;2022-12-24T02:44:38;97995.56;;;6.43;100.00
20023;BME280;10172;42.054;24.546;2022-12-24T02:47:06;97994.38;;;5.67;100.00
20023;BME280;10172;42.054;24.546;2022-12-24T02:49:34;97999.47;;;5.87;100.00
20023;BME280;10172;42.054;24.546;2022-12-24T02:52:00;97984.72;;;6.16;100.00
20023;BME280;10172;42.054;24.546;2022-12-24T02:54:25;97988.19;;;7.09;100.00
20023;BME280;10172;42.054;24.546;2022-12-24T03:05:29;98004.25;;;7.36;100.00
20023;BME280;10172;42.054;24.546;2022-12-24T03:08:47;97999.19;;;7.61;100.00
20023;BME280;10172;42.054;24.546;2022-12-24T03:10:59;97999.03;;;7.78;100.00
20023;BME280;10172;42.054;24.546;2022-12-24T03:13:27;97975.38;;;7.75;100.00
20023;BME280;10172;42.054;24.546;2022-12-24T03:15:53;97985.78;;;8.06;100.00
20023;BME280;10172;42.054;24.546;2022-12-24T03:18:24;97987.88;;;7.73;100.00
20023;BME280;10172;42.054;24.546;2022-12-24T03:21:01;97981.44;;;7.91;100.00
20023;BME280;10172;42.054;24.546;2022-12-24T03:23:29;97971.66;;;6.60;100.00
20023;BME280;10172;42.054;24.546;2022-12-24T03:25:55;97969.03;;;7.05;100.00
20023;BME280;10172;42.054;24.546;2022-12-24T03:28:25;97974.88;;;7.40;100.00
20023;BME280;10172;42.054;24.546;2022-12-24T03:30:52;97973.69;;;6.86;100.00
20023;BME280;10172;42.054;24.546;2022-12-24T03:33:18;97981.41;;;6.59;100.00
20023;BME280;10172;42.054;24.546;2022-12-24T03:35:44;97971.81;;;6.57;100.00
20023;BME280;10172;42.054;24.546;2022-12-24T03:38:09;97966.81;;;5.40;100.00
20023;BME280;10172;42.054;24.546;2022-12-24T03:40:35;97959.75;;;5.06;100.00
20023;BME280;10172;42.054;24.546;2022-12-24T03:43:00;97953.81;;;5.53;100.00
20023;BME280;10172;42.054;24.546;2022-12-24T03:45:26;97957.19;;;5.39;100.00
20023;BME280;10172;42.054;24.546;2022-12-24T03:47:51;97956.00;;;5.77;100.00
20023;BME280;10172;42.054;24.546;2022-12-24T03:50:17;97957.53;;;6.45;100.00
20023;BME280;10172;42.054;24.546;2022-12-24T03:52:43;97941.38;;;6.81;100.00
20023;BME280;10172;42.054;24.546;2022-12-24T03:55:08;97946.28;;;6.26;100.00
20023;BME280;10172;42.054;24.546;2022-12-24T03:57:34;97937.28;;;7.05;100.00
20023;BME280;10172;42.054;24.546;2022-12-24T03:59:59;97951.50;;;7.33;100.00
20023;BME280;10172;42.054;24.546;2022-12-24T04:02:25;97957.16;;;6.67;100.00
20023;BME280;10172;42.054;24.546;2022-12-24T04:04:50;97954.38;;;7.00;100.00
20023;BME280;10172;42.054;24.546;2022-12-24T04:07:16;97952.63;;;7.29;100.00
20023;BME280;10172;42.054;24.546;2022-12-24T04:09:41;97954.53;;;7.41;100.00
20023;BME280;10172;42.054;24.546;2022-12-24T04:12:07;97957.47;;;6.77;100.00
20023;BME280;10172;42.054;24.546;2022-12-24T04:14:33;97951.13;;;6.49;100.00
20023;BME280;10172;42.054;24.546;2022-12-24T04:16:58;97962.06;;;6.89;100.00
20023;BME280;10172;42.054;24.546;2022-12-24T04:19:24;97972.31;;;6.79;100.00
20023;BME280;10172;42.054;24.546;2022-12-24T04:21:49;97971.25;;;7.27;100.00
20023;BME280;10172;42.054;24.546;2022-12-24T04:24:15;97975.72;;;7.41;100.00
20023;BME280;10172;42.054;24.546;2022-12-24T04:26:40;97959.34;;;5.81;100.00
20023;BME280;10172;42.054;24.546;2022-12-24T04:29:06;97968.63;;;6.21;100.00
20023;BME280;10172;42.054;24.546;2022-12-24T04:31:31;97972.66;;;6.73;100.00
20023;BME280;10172;42.054;24.546;2022-12-24T04:33:56;97967.41;;;6.57;100.00
20023;BME280;10172;42.054;24.546;2022-12-24T04:36:22;97973.19;;;6.64;100.00
20023;BME280;10172;42.054;24.546;2022-12-24T04:38:48;97963.28;;;6.83;100.00
20023;BME280;10172;42.054;24.546;2022-12-24T04:41:16;97981.19;;;6.62;100.00
20023;BME280;10172;42.054;24.546;2022-12-24T04:43:42;97974.63;;;7.15;100.00
20023;BME280;10172;42.054;24.546;2022-12-24T04:46:11;97975.25;;;7.34;100.00
20023;BME280;10172;42.054;24.546;2022-12-24T04:48:44;97972.94;;;6.53;100.00
20023;BME280;10172;42.054;24.546;2022-12-24T04:51:10;97969.28;;;7.01;100.00
20023;BME280;10172;42.054;24.546;2022-12-24T04:53:37;97987.81;;;7.45;100.00
20023;BME280;10172;42.054;24.546;2022-12-24T04:56:03;97988.56;;;6.42;100.00
20023;BME280;10172;42.054;24.546;2022-12-24T04:58:31;97982.22;;;6.60;100.00
20023;BME280;10172;42.054;24.546;2022-12-24T05:01:05;97993.56;;;6.78;100.00
20023;BME280;10172;42.054;24.546;2022-12-24T05:03:33;97984.44;;;6.52;100.00
20023;BME280;10172;42.054;24.546;2022-12-24T05:06:04;97987.31;;;6.94;100.00
20023;BME280;10172;42.054;24.546;2022-12-24T05:08:29;97996.34;;;6.90;100.00
20023;BME280;10172;42.054;24.546;2022-12-24T05:10:59;97989.72;;;6.83;100.00
20023;BME280;10172;42.054;24.546;2022-12-24T05:13:25;97988.41;;;7.20;100.00
20023;BME280;10172;42.054;24.546;2022-12-24T05:15:51;97999.09;;;6.89;100.00
20023;BME280;10172;42.054;24.546;2022-12-24T05:18:17;97983.28;;;6.26;100.00
20023;BME280;10172;42.054;24.546;2022-12-24T05:20:42;97994.16;;;6.36;100.00
20023;BME280;10172;42.054;24.546;2022-12-24T05:23:20;98000.63;;;6.30;100.00
20023;BME280;10172;42.054;24.546;2022-12-24T05:26:15;97985.13;;;6.71;100.00
20023;BME280;10172;42.054;24.546;2022-12-24T05:28:49;97988.19;;;6.63;100.00
20023;BME280;10172;42.054;24.546;2022-12-24T05:31:14;97986.94;;;6.55;100.00
20023;BME280;10172;42.054;24.546;2022-12-24T05:33:40;97986.84;;;6.41;100.00
20023;BME280;10172;42.054;24.546;2022-12-24T05:36:05;97990.09;;;6.46;100.00
20023;BME280;10172;42.054;24.546;2022-12-24T05:38:31;97994.66;;;6.74;100.00
20023;BME280;10172;42.054;24.546;2022-12-24T05:40:56;97996.38;;;6.28;100.00
20023;BME280;10172;42.054;24.546;2022-12-24T05:43:22;98000.13;;;6.08;100.00
20023;BME280;10172;42.054;24.546;2022-12-24T05:45:47;98009.88;;;6.70;100.00
20023;BME280;10172;42.054;24.546;2022-12-24T05:48:13;98000.25;;;5.89;100.00
20023;BME280;10172;42.054;24.546;2022-12-24T05:50:39;97993.84;;;6.26;100.00
20023;BME280;10172;42.054;24.546;2022-12-24T05:53:05;97998.19;;;7.04;100.00
20023;BME280;10172;42.054;24.546;2022-12-24T05:55:31;98005.09;;;6.45;100.00
20023;BME280;10172;42.054;24.546;2022-12-24T05:57:57;97997.94;;;6.16;100.00
20023;BME280;10172;42.054;24.546;2022-12-24T06:00:22;98002.03;;;6.22;100.00
20023;BME280;10172;42.054;24.546;2022-12-24T06:02:48;97998.59;;;6.35;100.00
20023;BME280;10172;42.054;24.546;2022-12-24T06:05:14;97994.38;;;6.48;100.00
20023;BME280;10172;42.054;24.546;2022-12-24T06:07:39;98001.25;;;6.67;100.00
20023;BME280;10172;42.054;24.546;2022-12-24T06:10:06;98002.69;;;6.72;100.00
20023;BME280;10172;42.054;24.546;2022-12-24T06:12:32;98011.03;;;6.49;100.00
20023;BME280;10172;42.054;24.546;2022-12-24T06:14:57;98008.66;;;6.76;100.00
20023;BME280;10172;42.054;24.546;2022-12-24T06:17:23;98020.91;;;6.92;100.00
20023;BME280;10172;42.054;24.546;2022-12-24T06:19:48;98025.16;;;6.01;100.00
20023;BME280;10172;42.054;24.546;2022-12-24T06:22:14;98016.75;;;6.10;100.00
20023;BME280;10172;42.054;24.546;2022-12-24T06:24:39;98031.19;;;6.51;100.00
20023;BME280;10172;42.054;24.546;2022-12-24T06:27:04;98027.66;;;6.82;100.00
20023;BME280;10172;42.054;24.546;2022-12-24T06:29:30;98028.84;;;6.77;100.00
20023;BME280;10172;42.054;24.546;2022-12-24T06:31:56;98028.78;;;6.62;100.00
20023;BME280;10172;42.054;24.546;2022-12-24T06:34:21;98036.53;;;6.66;100.00
20023;BME280;10172;42.054;24.546;2022-12-24T06:36:47;98040.88;;;6.82;100.00
20023;BME280;10172;42.054;24.546;2022-12-24T06:39:12;98029.63;;;6.63;100.00
20023;BME280;10172;42.054;24.546;2022-12-24T06:41:38;98027.38;;;6.09;100.00
20023;BME280;10172;42.054;24.546;2022-12-24T06:44:03;98020.88;;;5.49;100.00
20023;BME280;10172;42.054;24.546;2022-12-24T06:46:29;98010.00;;;5.03;100.00
20023;BME280;10172;42.054;24.546;2022-12-24T06:48:54;98020.94;;;5.30;100.00
20023;BME280;10172;42.054;24.546;2022-12-24T06:51:20;98018.63;;;6.24;100.00
20023;BME280;10172;42.054;24.546;2022-12-24T06:53:47;98019.09;;;5.82;100.00
20023;BME280;10172;42.054;24.546;2022-12-24T06:56:15;98002.00;;;5.56;100.00
20023;BME280;10172;42.054;24.546;2022-12-24T06:58:41;98006.34;;;5.57;100.00
20023;BME280;10172;42.054;24.546;2022-12-24T07:01:11;98012.94;;;6.47;100.00
20023;BME280;10172;42.054;24.546;2022-12-24T07:03:37;98003.72;;;6.23;100.00
20023;BME280;10172;42.054;24.546;2022-12-24T07:06:03;98009.28;;;6.95;100.00
20023;BME280;10172;42.054;24.546;2022-12-24T07:08:29;98016.25;;;7.27;100.00
20023;BME280;10172;42.054;24.546;2022-12-24T07:10:58;98018.47;;;7.19;100.00
20023;BME280;10172;42.054;24.546;2022-12-24T07:13:23;98019.38;;;6.88;100.00
20023;BME280;10172;42.054;24.546;2022-12-24T07:15:59;98025.84;;;6.98;100.00
20023;BME280;10172;42.054;24.546;2022-12-24T07:18:25;98033.34;;;7.36;100.00
20023;BME280;10172;42.054;24.546;2022-12-24T07:20:51;98032.28;;;7.68;100.00
20023;BME280;10172;42.054;24.546;2022-12-24T07:23:16;98034.09;;;7.81;100.00
20023;BME280;10172;42.054;24.546;2022-12-24T07:25:42;98025.31;;;7.95;100.00
20023;BME280;10172;42.054;24.546;2022-12-24T07:28:08;98032.16;;;7.99;100.00
20023;BME280;10172;42.054;24.546;2022-12-24T07:30:33;98035.53;;;8.01;100.00
20023;BME280;10172;42.054;24.546;2022-12-24T07:32:59;98033.44;;;7.64;100.00
20023;BME280;10172;42.054;24.546;2022-12-24T07:35:25;98030.88;;;7.76;100.00
20023;BME280;10172;42.054;24.546;2022-12-24T07:37:50;98024.19;;;7.85;100.00
20023;BME280;10172;42.054;24.546;2022-12-24T07:40:16;98031.66;;;7.78;100.00
20023;BME280;10172;42.054;24.546;2022-12-24T07:42:41;98027.97;;;7.81;100.00
20023;BME280;10172;42.054;24.546;2022-12-24T07:45:07;98041.59;;;8.17;100.00
20023;BME280;10172;42.054;24.546;2022-12-24T07:47:33;98037.28;;;8.30;100.00
20023;BME280;10172;42.054;24.546;2022-12-24T07:49:59;98048.78;;;8.58;100.00
20023;BME280;10172;42.054;24.546;2022-12-24T07:52:24;98043.31;;;8.47;100.00
20023;BME280;10172;42.054;24.546;2022-12-24T07:54:50;98045.56;;;8.67;100.00
20023;BME280;10172;42.054;24.546;2022-12-24T07:57:16;98060.09;;;8.88;100.00
20023;BME280;10172;42.054;24.546;2022-12-24T07:59:41;98060.91;;;8.76;100.00
20023;BME280;10172;42.054;24.546;2022-12-24T08:02:09;98059.59;;;8.55;100.00
20023;BME280;10172;42.054;24.546;2022-12-24T08:04:35;98075.97;;;8.47;100.00
20023;BME280;10172;42.054;24.546;2022-12-24T08:07:03;98086.28;;;8.66;100.00
20023;BME280;10172;42.054;24.546;2022-12-24T08:09:31;98081.16;;;8.63;100.00
20023;BME280;10172;42.054;24.546;2022-12-24T08:11:56;98092.44;;;8.52;100.00
20023;BME280;10172;42.054;24.546;2022-12-24T08:14:22;98087.56;;;8.46;100.00
20023;BME280;10172;42.054;24.546;2022-12-24T08:16:47;98088.84;;;8.67;100.00
20023;BME280;10172;42.054;24.546;2022-12-24T08:19:13;98097.41;;;8.99;100.00
20023;BME280;10172;42.054;24.546;2022-12-24T08:21:39;98090.44;;;8.84;100.00
20023;BME280;10172;42.054;24.546;2022-12-24T08:24:04;98100.78;;;9.15;100.00
20023;BME280;10172;42.054;24.546;2022-12-24T08:26:30;98106.19;;;9.40;100.00
20023;BME280;10172;42.054;24.546;2022-12-24T08:28:56;98090.41;;;9.51;100.00
20023;BME280;10172;42.054;24.546;2022-12-24T08:31:21;98094.66;;;9.54;100.00
20023;BME280;10172;42.054;24.546;2022-12-24T08:33:47;98094.06;;;9.76;100.00
20023;BME280;10172;42.054;24.546;2022-12-24T08:36:12;98096.06;;;9.72;100.00
20023;BME280;10172;42.054;24.546;2022-12-24T08:38:38;98093.63;;;9.82;100.00
20023;BME280;10172;42.054;24.546;2022-12-24T08:41:04;98092.69;;;9.83;100.00
20023;BME280;10172;42.054;24.546;2022-12-24T08:43:30;98080.06;;;9.47;100.00
20023;BME280;10172;42.054;24.546;2022-12-24T08:46:01;98093.50;;;9.71;100.00
20023;BME280;10172;42.054;24.546;2022-12-24T08:48:28;98085.72;;;10.07;100.00
20023;BME280;10172;42.054;24.546;2022-12-24T08:50:53;98079.31;;;9.32;100.00
20023;BME280;10172;42.054;24.546;2022-12-24T08:53:19;98082.22;;;9.54;100.00
20023;BME280;10172;42.054;24.546;2022-12-24T08:55:44;98084.06;;;9.79;100.00
20023;BME280;10172;42.054;24.546;2022-12-24T08:58:10;98077.22;;;10.02;100.00
20023;BME280;10172;42.054;24.546;2022-12-24T09:00:35;98078.53;;;10.22;100.00
20023;BME280;10172;42.054;24.546;2022-12-24T09:03:01;98077.38;;;9.74;100.00
20023;BME280;10172;42.054;24.546;2022-12-24T09:05:27;98078.03;;;9.38;100.00
20023;BME280;10172;42.054;24.546;2022-12-24T09:07:53;98083.13;;;9.80;100.00
20023;BME280;10172;42.054;24.546;2022-12-24T09:10:19;98074.28;;;10.19;100.00
20023;BME280;10172;42.054;24.546;2022-12-24T09:12:45;98070.63;;;10.58;100.00
20023;BME280;10172;42.054;24.546;2022-12-24T09:15:10;98062.47;;;10.85;100.00
20023;BME280;10172;42.054;24.546;2022-12-24T09:17:36;98059.34;;;10.42;100.00
20023;BME280;10172;42.054;24.546;2022-12-24T09:20:02;98074.13;;;10.08;100.00
20023;BME280;10172;42.054;24.546;2022-12-24T09:22:28;98068.94;;;10.44;100.00
20023;BME280;10172;42.054;24.546;2022-12-24T09:24:53;98053.97;;;10.79;100.00
20023;BME280;10172;42.054;24.546;2022-12-24T09:27:19;98052.53;;;11.23;100.00
20023;BME280;10172;42.054;24.546;2022-12-24T09:29:45;98051.03;;;11.66;99.62
20023;BME280;10172;42.054;24.546;2022-12-24T09:32:10;98046.63;;;11.54;99.78
20023;BME280;10172;42.054;24.546;2022-12-24T09:34:36;98055.06;;;10.64;100.00
20023;BME280;10172;42.054;24.546;2022-12-24T09:37:02;98047.78;;;11.15;100.00
20023;BME280;10172;42.054;24.546;2022-12-24T09:39:28;98036.94;;;11.53;100.00
20023;BME280;10172;42.054;24.546;2022-12-24T09:45:07;98034.09;;;12.57;94.06
20023;BME280;10172;42.054;24.546;2022-12-24T09:47:45;98031.25;;;12.92;92.26
20023;BME280;10172;42.054;24.546;2022-12-24T09:50:40;98026.06;;;12.69;94.67
20023;BME280;10172;42.054;24.546;2022-12-24T09:56:01;98012.78;;;13.11;94.52
20023;BME280;10172;42.054;24.546;2022-12-24T09:58:44;98002.63;;;13.37;93.55
20023;BME280;10172;42.054;24.546;2022-12-24T10:01:15;98007.91;;;13.16;93.53
20023;BME280;10172;42.054;24.546;2022-12-24T10:03:42;98020.00;;;12.89;90.05
20023;BME280;10172;42.054;24.546;2022-12-24T10:06:19;98002.03;;;13.34;89.68
20023;BME280;10172;42.054;24.546;2022-12-24T10:08:50;97997.50;;;13.13;94.05
20023;BME280;10172;42.054;24.546;2022-12-24T10:11:30;97995.81;;;13.01;90.54
20023;BME280;10172;42.054;24.546;2022-12-24T10:14:37;98000.69;;;12.96;94.28
20023;BME280;10172;42.054;24.546;2022-12-24T10:19:43;97992.91;;;13.36;91.72
20023;BME280;10172;42.054;24.546;2022-12-24T10:28:16;97982.13;;;13.79;87.29
20023;BME280;10172;42.054;24.546;2022-12-24T10:30:46;97985.91;;;13.76;87.07
20023;BME280;10172;42.054;24.546;2022-12-24T10:33:30;97991.41;;;13.75;86.14
20023;BME280;10172;42.054;24.546;2022-12-24T10:35:57;97993.81;;;14.29;83.74
20023;BME280;10172;42.054;24.546;2022-12-24T10:38:23;97990.41;;;13.97;81.99
20023;BME280;10172;42.054;24.546;2022-12-24T10:40:50;97989.47;;;14.07;79.61
20023;BME280;10172;42.054;24.546;2022-12-24T10:43:20;97989.66;;;14.15;80.42
20023;BME280;10172;42.054;24.546;2022-12-24T10:45:50;97991.00;;;14.51;80.78
20023;BME280;10172;42.054;24.546;2022-12-24T10:48:26;97985.50;;;14.53;78.89
20023;BME280;10172;42.054;24.546;2022-12-24T10:51:01;97988.75;;;14.66;77.47
20023;BME280;10172;42.054;24.546;2022-12-24T10:53:41;97976.44;;;14.84;75.46
20023;BME280;10172;42.054;24.546;2022-12-24T10:56:09;97976.16;;;15.06;74.08
20023;BME280;10172;42.054;24.546;2022-12-24T10:58:36;97981.53;;;15.06;73.28
20023;BME280;10172;42.054;24.546;2022-12-24T11:01:06;97983.09;;;15.18;71.95
20023;BME280;10172;42.054;24.546;2022-12-24T11:03:34;97970.84;;;15.25;70.49
20023;BME280;10172;42.054;24.546;2022-12-24T11:06:08;97979.28;;;15.30;71.12
20023;BME280;10172;42.054;24.546;2022-12-24T11:08:36;97975.06;;;15.18;71.96
20023;BME280;10172;42.054;24.546;2022-12-24T11:11:04;97969.69;;;15.28;73.58
20023;BME280;10172;42.054;24.546;2022-12-24T11:13:40;97975.38;;;15.53;72.49
20023;BME280;10172;42.054;24.546;2022-12-24T11:18:48;97968.31;;;15.52;69.81
20023;BME280;10172;42.054;24.546;2022-12-24T11:21:38;97978.94;;;15.54;72.01
20023;BME280;10172;42.054;24.546;2022-12-24T11:26:33;97962.38;;;15.68;72.86
20023;BME280;10172;42.054;24.546;2022-12-24T11:31:46;97949.16;;;15.47;75.56
20023;BME280;10172;42.054;24.546;2022-12-24T11:34:29;97950.13;;;15.08;72.73
20023;BME280;10172;42.054;24.546;2022-12-24T11:37:18;97952.25;;;15.62;74.44
20023;BME280;10172;42.054;24.546;2022-12-24T11:39:53;97952.91;;;15.83;73.05
20023;BME280;10172;42.054;24.546;2022-12-24T11:42:27;97943.56;;;15.97;74.45
20023;BME280;10172;42.054;24.546;2022-12-24T11:44:55;97950.44;;;16.09;73.75
20023;BME280;10172;42.054;24.546;2022-12-24T11:47:36;97952.22;;;15.81;78.44
20023;BME280;10172;42.054;24.546;2022-12-24T11:58:42;97945.75;;;15.65;83.53
20023;BME280;10172;42.054;24.546;2022-12-24T12:01:17;97947.16;;;15.49;84.81
20023;BME280;10172;42.054;24.546;2022-12-24T12:04:11;97940.38;;;15.17;84.82
20023;BME280;10172;42.054;24.546;2022-12-24T12:06:42;97950.25;;;14.97;87.43
20023;BME280;10172;42.054;24.546;2022-12-24T12:09:18;97948.84;;;15.22;87.45
20023;BME280;10172;42.054;24.546;2022-12-24T12:11:49;97941.47;;;14.95;90.91
20023;BME280;10172;42.054;24.546;2022-12-24T12:14:25;97941.47;;;14.95;90.48
20023;BME280;10172;42.054;24.546;2022-12-24T12:17:02;97936.97;;;14.86;90.25
20023;BME280;10172;42.054;24.546;2022-12-24T12:19:41;97940.84;;;14.53;90.80
20023;BME280;10172;42.054;24.546;2022-12-24T12:22:31;97938.13;;;15.12;89.20
20023;BME280;10172;42.054;24.546;2022-12-24T12:25:01;97929.41;;;15.48;85.71
20023;BME280;10172;42.054;24.546;2022-12-24T12:27:34;97934.59;;;15.12;86.92
20023;BME280;10172;42.054;24.546;2022-12-24T12:30:06;97942.34;;;15.63;86.28
20023;BME280;10172;42.054;24.546;2022-12-24T12:35:35;97949.94;;;15.38;83.12
20023;BME280;10172;42.054;24.546;2022-12-24T12:38:03;97941.22;;;15.17;77.01
20023;BME280;10172;42.054;24.546;2022-12-24T12:49:35;97934.75;;;15.29;80.71
20023;BME280;10172;42.054;24.546;2022-12-24T12:55:19;97930.41;;;14.50;83.94
20023;BME280;10172;42.054;24.546;2022-12-24T12:57:47;97929.09;;;14.94;82.66
20023;BME280;10172;42.054;24.546;2022-12-24T13:00:17;97946.84;;;15.33;81.81
20023;BME280;10172;42.054;24.546;2022-12-24T13:11:42;97959.56;;;15.03;86.18
20023;BME280;10172;42.054;24.546;2022-12-24T13:21:58;97960.78;;;13.68;98.96
20023;BME280;10172;42.054;24.546;2022-12-24T13:24:25;97973.63;;;14.15;94.82
20023;BME280;10172;42.054;24.546;2022-12-24T13:34:52;97984.97;;;13.87;100.00
20023;BME280;10172;42.054;24.546;2022-12-24T13:47:57;97987.63;;;15.08;92.61
20023;BME280;10172;42.054;24.546;2022-12-24T13:50:45;97991.97;;;15.00;94.04
20023;BME280;10172;42.054;24.546;2022-12-24T13:53:21;97990.28;;;15.08;92.73
20023;BME280;10172;42.054;24.546;2022-12-24T13:58:45;97991.16;;;15.18;92.05
20023;BME280;10172;42.054;24.546;2022-12-24T14:01:14;98008.00;;;14.90;92.94
20023;BME280;10172;42.054;24.546;2022-12-24T14:03:43;97995.22;;;14.54;94.73
20023;BME280;10172;42.054;24.546;2022-12-24T14:06:22;98000.66;;;13.18;100.00
20023;BME280;10172;42.054;24.546;2022-12-24T14:08:51;98000.63;;;12.09;100.00
20023;BME280;10172;42.054;24.546;2022-12-24T14:11:20;97992.03;;;12.39;100.00
20023;BME280;10172;42.054;24.546;2022-12-24T14:16:28;98001.25;;;12.13;100.00
20023;BME280;10172;42.054;24.546;2022-12-24T14:21:37;98001.13;;;12.36;100.00
20023;BME280;10172;42.054;24.546;2022-12-24T14:24:15;98002.22;;;12.23;100.00
20023;BME280;10172;42.054;24.546;2022-12-24T14:26:48;97995.16;;;12.33;92.21
20023;BME280;10172;42.054;24.546;2022-12-24T14:31:55;98013.59;;;12.36;100.00
20023;BME280;10172;42.054;24.546;2022-12-24T14:34:21;98013.34;;;12.39;96.44
20023;BME280;10172;42.054;24.546;2022-12-24T14:36:49;98007.75;;;12.86;87.13
20023;BME280;10172;42.054;24.546;2022-12-24T14:39:30;98012.25;;;12.64;100.00
20023;BME280;10172;42.054;24.546;2022-12-24T14:44:55;98010.66;;;13.37;86.65
20023;BME280;10172;42.054;24.546;2022-12-24T14:47:35;98023.16;;;13.89;83.62
20023;BME280;10172;42.054;24.546;2022-12-24T14:55:40;98021.31;;;14.10;83.19
20023;BME280;10172;42.054;24.546;2022-12-24T14:58:31;98029.97;;;14.23;80.72
20023;BME280;10172;42.054;24.546;2022-12-24T15:01:02;98031.69;;;14.24;82.16
20023;BME280;10172;42.054;24.546;2022-12-24T15:03:31;98023.72;;;13.93;82.43